IGO104 VEGT-VABB
Flight info
| Callsign | IGO104 |
|---|---|
| Flight time | N/A |
| Altitude | 38000 |
| Route | ATOGA1D ATOGA R472 RAJ B209 DGP DCT ENTAP Q20 OPAKA EMRAK2A |
| Aircraft | A20N/M-SDGHIRWXY/LB1D1 |
Departure
| Time | 2026-05-06 13:48 |
|---|---|
| Airport | Lokpriya Gopinath Bordoloi International Airport (VEGT) |
Arrival
| Time | N/A |
|---|---|
| Airport | Chhatrapati Shivaji Maharaj International Airport (VABB) |
| Time | Latitude | Longitude | Altitude | Speed | Heading |
|---|---|---|---|---|---|
| 2026-05-06 13:25 | 26.12134 | 91.59673 | 179 ft | 0 kts | 112° |
| 2026-05-06 13:39 | 26.12136 | 91.59667 | 179 ft | 2 kts | 127° |
| 2026-05-06 13:39 | 26.12146 | 91.59655 | 179 ft | 2 kts | 125° |
| 2026-05-06 13:40 | 26.12154 | 91.59643 | 179 ft | 0 kts | 128° |
| 2026-05-06 13:40 | 26.12156 | 91.59641 | 179 ft | 0 kts | 94° |
| 2026-05-06 13:40 | 26.12155 | 91.59635 | 179 ft | 0 kts | 41° |
| 2026-05-06 13:40 | 26.12151 | 91.59633 | 179 ft | 1 kts | 14° |
| 2026-05-06 13:41 | 26.12147 | 91.59631 | 179 ft | 0 kts | 22° |
| 2026-05-06 13:43 | 26.12158 | 91.59636 | 179 ft | 4 kts | 18° |
| 2026-05-06 13:44 | 26.12187 | 91.59631 | 179 ft | 4 kts | 319° |
| 2026-05-06 13:44 | 26.12202 | 91.59596 | 179 ft | 4 kts | 286° |
| 2026-05-06 13:44 | 26.12190 | 91.59567 | 179 ft | 4 kts | 213° |
| 2026-05-06 13:44 | 26.12156 | 91.59548 | 179 ft | 5 kts | 205° |
| 2026-05-06 13:45 | 26.12114 | 91.59528 | 179 ft | 7 kts | 204° |
| 2026-05-06 13:45 | 26.11985 | 91.59466 | 179 ft | 11 kts | 204° |
| 2026-05-06 13:45 | 26.11947 | 91.59425 | 179 ft | 8 kts | 264° |
| 2026-05-06 13:46 | 26.11963 | 91.59362 | 179 ft | 8 kts | 292° |
| 2026-05-06 13:46 | 26.11988 | 91.59293 | 179 ft | 10 kts | 292° |
| 2026-05-06 13:46 | 26.12017 | 91.59219 | 179 ft | 9 kts | 293° |
| 2026-05-06 13:46 | 26.12014 | 91.59152 | 179 ft | 9 kts | 222° |
| 2026-05-06 13:47 | 26.11972 | 91.59126 | 179 ft | 0 kts | 203° |
| 2026-05-06 13:47 | 26.11962 | 91.59122 | 179 ft | 9 kts | 203° |
| 2026-05-06 13:47 | 26.11670 | 91.58987 | 179 ft | 79 kts | 202° |
| 2026-05-06 13:47 | 26.10971 | 91.58665 | 183 ft | 136 kts | 202° |
| 2026-05-06 13:48 | 26.09933 | 91.58190 | 268 ft | 173 kts | 201° |
| 2026-05-06 13:48 | 26.08857 | 91.57690 | 859 ft | 169 kts | 202° |
| 2026-05-06 13:48 | 26.07769 | 91.57182 | 1467 ft | 169 kts | 201° |
| 2026-05-06 13:48 | 26.06688 | 91.56705 | 2092 ft | 166 kts | 201° |
| 2026-05-06 13:49 | 26.05598 | 91.56235 | 2498 ft | 174 kts | 203° |
| 2026-05-06 13:49 | 26.04453 | 91.55711 | 2939 ft | 180 kts | 208° |
| 2026-05-06 13:49 | 26.03481 | 91.54874 | 3366 ft | 182 kts | 240° |
| 2026-05-06 13:49 | 26.03045 | 91.53567 | 3878 ft | 181 kts | 258° |
| 2026-05-06 13:50 | 26.02721 | 91.52220 | 4410 ft | 182 kts | 252° |
| 2026-05-06 13:50 | 26.02269 | 91.50903 | 4890 ft | 187 kts | 249° |
| 2026-05-06 13:50 | 26.01749 | 91.49538 | 5336 ft | 194 kts | 247° |
| 2026-05-06 13:50 | 26.01216 | 91.48170 | 5814 ft | 199 kts | 247° |
| 2026-05-06 13:51 | 26.00582 | 91.46790 | 6304 ft | 204 kts | 238° |
| 2026-05-06 13:51 | 25.99759 | 91.45493 | 6811 ft | 208 kts | 234° |
| 2026-05-06 13:51 | 25.98879 | 91.44199 | 7359 ft | 211 kts | 233° |
| 2026-05-06 13:51 | 25.97982 | 91.42888 | 7857 ft | 217 kts | 233° |
| 2026-05-06 13:52 | 25.97067 | 91.41534 | 8266 ft | 227 kts | 234° |
| 2026-05-06 13:52 | 25.96074 | 91.40066 | 8461 ft | 249 kts | 234° |
| 2026-05-06 13:52 | 25.94999 | 91.38477 | 8829 ft | 265 kts | 234° |
| 2026-05-06 13:52 | 25.93859 | 91.36791 | 9233 ft | 279 kts | 234° |
| 2026-05-06 13:53 | 25.92661 | 91.35085 | 9857 ft | 284 kts | 232° |
| 2026-05-06 13:53 | 25.91402 | 91.33347 | 10444 ft | 291 kts | 231° |
| 2026-05-06 13:53 | 25.90115 | 91.31571 | 10754 ft | 307 kts | 231° |
| 2026-05-06 13:53 | 25.88748 | 91.29696 | 11291 ft | 314 kts | 232° |
| 2026-05-06 13:54 | 25.87365 | 91.27806 | 11974 ft | 316 kts | 232° |
| 2026-05-06 13:54 | 25.86000 | 91.25931 | 12635 ft | 318 kts | 232° |
| 2026-05-06 13:54 | 25.84604 | 91.24006 | 13281 ft | 320 kts | 232° |
| 2026-05-06 13:54 | 25.83208 | 91.22079 | 13937 ft | 322 kts | 232° |
| 2026-05-06 13:55 | 25.81815 | 91.20159 | 14575 ft | 323 kts | 232° |
| 2026-05-06 13:55 | 25.80389 | 91.18197 | 15209 ft | 325 kts | 232° |
| 2026-05-06 13:55 | 25.78974 | 91.16248 | 15811 ft | 327 kts | 232° |
| 2026-05-06 13:55 | 25.77556 | 91.14294 | 16293 ft | 332 kts | 232° |
| 2026-05-06 13:56 | 25.76065 | 91.12241 | 16528 ft | 346 kts | 232° |
| 2026-05-06 13:56 | 25.74541 | 91.10143 | 16745 ft | 358 kts | 232° |
| 2026-05-06 13:56 | 25.72936 | 91.07934 | 17025 ft | 368 kts | 232° |
| 2026-05-06 13:56 | 25.71331 | 91.05727 | 17493 ft | 371 kts | 232° |
| 2026-05-06 13:57 | 25.69712 | 91.03503 | 18020 ft | 373 kts | 232° |
| 2026-05-06 13:57 | 25.68082 | 91.01264 | 18538 ft | 374 kts | 232° |
| 2026-05-06 13:57 | 25.66443 | 90.99013 | 19008 ft | 376 kts | 232° |
| 2026-05-06 13:57 | 25.64804 | 90.96763 | 19477 ft | 378 kts | 232° |
| 2026-05-06 13:58 | 25.63158 | 90.94504 | 19930 ft | 380 kts | 232° |
| 2026-05-06 13:58 | 25.61482 | 90.92206 | 20412 ft | 381 kts | 232° |
| 2026-05-06 13:58 | 25.59842 | 90.89957 | 20876 ft | 382 kts | 232° |
| 2026-05-06 13:58 | 25.58154 | 90.87646 | 21296 ft | 384 kts | 232° |
| 2026-05-06 13:59 | 25.56486 | 90.85358 | 21710 ft | 385 kts | 232° |
| 2026-05-06 13:59 | 25.54802 | 90.83050 | 22111 ft | 387 kts | 232° |
| 2026-05-06 13:59 | 25.53097 | 90.80717 | 22504 ft | 389 kts | 232° |
| 2026-05-06 13:59 | 25.51388 | 90.78379 | 22884 ft | 391 kts | 233° |
| 2026-05-06 14:00 | 25.49681 | 90.76047 | 23281 ft | 392 kts | 232° |
| 2026-05-06 14:00 | 25.48011 | 90.73687 | 23695 ft | 392 kts | 235° |
| 2026-05-06 14:00 | 25.46432 | 90.71206 | 24062 ft | 393 kts | 237° |
| 2026-05-06 14:00 | 25.44938 | 90.68707 | 24435 ft | 394 kts | 238° |
| 2026-05-06 14:01 | 25.43415 | 90.66157 | 24789 ft | 395 kts | 238° |
| 2026-05-06 14:01 | 25.41904 | 90.63628 | 25112 ft | 396 kts | 237° |
| 2026-05-06 14:01 | 25.40399 | 90.61106 | 25441 ft | 398 kts | 237° |
| 2026-05-06 14:01 | 25.38869 | 90.58547 | 25742 ft | 399 kts | 237° |
| 2026-05-06 14:02 | 25.37345 | 90.55995 | 26043 ft | 400 kts | 237° |
| 2026-05-06 14:02 | 25.35800 | 90.53413 | 26354 ft | 401 kts | 237° |
| 2026-05-06 14:02 | 25.34268 | 90.50815 | 26662 ft | 401 kts | 240° |
| 2026-05-06 14:02 | 25.33011 | 90.48084 | 26954 ft | 402 kts | 246° |
| 2026-05-06 14:03 | 25.32086 | 90.45181 | 27236 ft | 404 kts | 253° |
| 2026-05-06 14:03 | 25.31499 | 90.42163 | 27479 ft | 407 kts | 259° |
| 2026-05-06 14:03 | 25.31108 | 90.39074 | 27744 ft | 408 kts | 259° |
| 2026-05-06 14:03 | 25.30731 | 90.35936 | 28016 ft | 408 kts | 260° |
| 2026-05-06 14:04 | 25.30365 | 90.32840 | 28270 ft | 409 kts | 259° |
| 2026-05-06 14:04 | 25.29994 | 90.29723 | 28495 ft | 410 kts | 259° |
| 2026-05-06 14:04 | 25.29629 | 90.26622 | 28728 ft | 411 kts | 259° |
| 2026-05-06 14:04 | 25.29258 | 90.23515 | 28975 ft | 411 kts | 259° |
| 2026-05-06 14:05 | 25.28881 | 90.20377 | 29241 ft | 410 kts | 259° |
| 2026-05-06 14:05 | 25.28509 | 90.17280 | 29513 ft | 410 kts | 259° |
| 2026-05-06 14:05 | 25.28135 | 90.14162 | 29803 ft | 409 kts | 259° |
| 2026-05-06 14:05 | 25.27764 | 90.11085 | 30080 ft | 407 kts | 259° |
| 2026-05-06 14:06 | 25.27279 | 90.08017 | 30346 ft | 405 kts | 255° |
| 2026-05-06 14:06 | 25.26579 | 90.05010 | 30632 ft | 403 kts | 252° |
| 2026-05-06 14:06 | 25.25682 | 90.02076 | 30907 ft | 401 kts | 248° |
| 2026-05-06 14:06 | 25.24608 | 89.99265 | 31159 ft | 400 kts | 244° |
| 2026-05-06 14:07 | 25.23334 | 89.96526 | 31426 ft | 399 kts | 241° |
| 2026-05-06 14:07 | 25.21925 | 89.93948 | 31674 ft | 398 kts | 238° |
| 2026-05-06 14:07 | 25.20434 | 89.91346 | 31914 ft | 397 kts | 239° |
| 2026-05-06 14:07 | 25.18951 | 89.88776 | 32110 ft | 397 kts | 239° |
| 2026-05-06 14:08 | 25.17477 | 89.86226 | 32315 ft | 396 kts | 238° |
| 2026-05-06 14:08 | 25.15995 | 89.83669 | 32522 ft | 396 kts | 238° |
| 2026-05-06 14:08 | 25.14528 | 89.81139 | 32758 ft | 395 kts | 239° |
| 2026-05-06 14:08 | 25.13046 | 89.78587 | 32966 ft | 395 kts | 239° |
| 2026-05-06 14:09 | 25.11550 | 89.76015 | 33153 ft | 395 kts | 239° |
| 2026-05-06 14:09 | 25.10070 | 89.73469 | 33320 ft | 395 kts | 239° |
| 2026-05-06 14:09 | 25.08587 | 89.70920 | 33506 ft | 395 kts | 239° |
| 2026-05-06 14:09 | 25.07122 | 89.68405 | 33685 ft | 395 kts | 239° |
| 2026-05-06 14:10 | 25.05622 | 89.65830 | 33863 ft | 395 kts | 239° |
| 2026-05-06 14:10 | 25.04153 | 89.63310 | 34038 ft | 395 kts | 239° |
| 2026-05-06 14:10 | 25.02667 | 89.60764 | 34217 ft | 395 kts | 239° |
| 2026-05-06 14:10 | 25.01181 | 89.58222 | 34383 ft | 395 kts | 239° |
| 2026-05-06 14:11 | 24.99708 | 89.55698 | 34556 ft | 394 kts | 239° |
| 2026-05-06 14:11 | 24.98219 | 89.53155 | 34711 ft | 394 kts | 239° |
| 2026-05-06 14:11 | 24.96722 | 89.50594 | 34854 ft | 395 kts | 239° |
| 2026-05-06 14:11 | 24.95257 | 89.48088 | 35009 ft | 394 kts | 239° |
| 2026-05-06 14:12 | 24.93764 | 89.45540 | 35148 ft | 394 kts | 239° |
| 2026-05-06 14:12 | 24.92282 | 89.43011 | 35267 ft | 395 kts | 239° |
| 2026-05-06 14:12 | 24.90789 | 89.40459 | 35376 ft | 395 kts | 239° |
| 2026-05-06 14:12 | 24.89303 | 89.37929 | 35518 ft | 395 kts | 239° |
| 2026-05-06 14:13 | 24.87792 | 89.35382 | 35626 ft | 395 kts | 239° |
| 2026-05-06 14:13 | 24.86303 | 89.32864 | 35755 ft | 395 kts | 239° |
| 2026-05-06 14:13 | 24.84800 | 89.30324 | 35876 ft | 395 kts | 239° |
| 2026-05-06 14:13 | 24.82808 | 89.26953 | 36009 ft | 396 kts | 239° |
| 2026-05-06 14:14 | 24.80318 | 89.22742 | 36163 ft | 397 kts | 239° |
| 2026-05-06 14:14 | 24.77291 | 89.17635 | 36314 ft | 399 kts | 239° |
| 2026-05-06 14:15 | 24.74264 | 89.12527 | 36447 ft | 400 kts | 239° |
| 2026-05-06 14:15 | 24.71206 | 89.07370 | 36608 ft | 402 kts | 239° |
| 2026-05-06 14:16 | 24.68168 | 89.02254 | 36749 ft | 402 kts | 239° |
| 2026-05-06 14:16 | 24.65114 | 88.97115 | 36895 ft | 403 kts | 239° |
| 2026-05-06 14:17 | 24.62022 | 88.91919 | 36952 ft | 405 kts | 239° |
| 2026-05-06 14:17 | 24.58946 | 88.86758 | 37086 ft | 405 kts | 239° |
| 2026-05-06 14:18 | 24.55864 | 88.81590 | 37165 ft | 406 kts | 239° |
| 2026-05-06 14:18 | 24.52769 | 88.76402 | 37227 ft | 407 kts | 239° |
| 2026-05-06 14:19 | 24.49654 | 88.71192 | 37314 ft | 408 kts | 239° |
| 2026-05-06 14:19 | 24.46537 | 88.65981 | 37370 ft | 409 kts | 239° |
| 2026-05-06 14:20 | 24.43424 | 88.60767 | 37422 ft | 409 kts | 240° |
| 2026-05-06 14:20 | 24.40442 | 88.55478 | 37459 ft | 410 kts | 241° |
| 2026-05-06 14:21 | 24.37440 | 88.50137 | 37497 ft | 410 kts | 241° |
| 2026-05-06 14:21 | 24.34454 | 88.44849 | 37566 ft | 410 kts | 241° |
| 2026-05-06 14:22 | 24.31440 | 88.39536 | 37589 ft | 411 kts | 240° |
| 2026-05-06 14:22 | 24.28404 | 88.34188 | 37592 ft | 412 kts | 240° |
| 2026-05-06 14:23 | 24.25409 | 88.28886 | 37703 ft | 412 kts | 240° |
| 2026-05-06 14:23 | 24.22378 | 88.23543 | 37753 ft | 412 kts | 240° |
| 2026-05-06 14:24 | 24.19360 | 88.18230 | 37772 ft | 414 kts | 240° |
| 2026-05-06 14:24 | 24.16308 | 88.12866 | 37786 ft | 414 kts | 240° |
| 2026-05-06 14:25 | 24.13261 | 88.07519 | 37790 ft | 414 kts | 240° |
| 2026-05-06 14:25 | 24.10225 | 88.02204 | 37781 ft | 413 kts | 240° |
| 2026-05-06 14:26 | 24.07183 | 87.96882 | 37769 ft | 412 kts | 240° |
| 2026-05-06 14:26 | 24.04143 | 87.91567 | 37774 ft | 413 kts | 241° |
| 2026-05-06 14:27 | 24.01088 | 87.86232 | 37769 ft | 414 kts | 240° |
| 2026-05-06 14:27 | 23.98045 | 87.80923 | 37767 ft | 414 kts | 241° |
| 2026-05-06 14:28 | 23.94988 | 87.75597 | 37775 ft | 413 kts | 240° |
| 2026-05-06 14:28 | 23.91931 | 87.70277 | 37773 ft | 413 kts | 240° |
| 2026-05-06 14:29 | 23.88881 | 87.64982 | 37776 ft | 414 kts | 240° |
| 2026-05-06 14:29 | 23.85799 | 87.59676 | 37775 ft | 414 kts | 240° |
| 2026-05-06 14:30 | 23.82724 | 87.54366 | 37772 ft | 415 kts | 241° |
| 2026-05-06 14:30 | 23.79650 | 87.49041 | 37779 ft | 416 kts | 241° |
| 2026-05-06 14:31 | 23.76556 | 87.43685 | 37780 ft | 415 kts | 241° |